Time;durP1;ratioP1;P1;durP2;ratioP2;P2;SDS_P1;SDS_P2;PMS_P1;PMS_P2;Temp;Humidity;BMP_temperature;BMP_pressure;BME280_temperature;BME280_humidity;BME280_pressure;Samples;Min_cycle;Max_cycle;Signal;HPM_P1;HPM_P2
2022/10/07 05:38:01;;;;;;;8.40;1.00;;;;;;;11.09;79.83;102473.66;5030531;28;126638;-31
2022/10/07 05:40:27;;;;;;;7.32;1.02;;;;;;;11.09;79.69;102466.38;5034857;28;96566;-31
2022/10/07 05:42:54;;;;;;;5.88;0.88;;;;;;;11.09;79.88;102460.09;5033467;28;96860;-30
2022/10/07 05:52:03;;;;;;;5.67;1.20;;;;;;;11.16;79.82;102458.91;5033677;28;96456;-30
2022/10/07 05:54:28;;;;;;;7.32;1.15;;;;;;;11.17;79.72;102464.25;5034330;28;96832;-31
2022/10/07 05:56:54;;;;;;;1.70;0.68;;;;;;;11.14;80.34;102456.25;5034462;28;97341;-30
2022/10/07 05:59:19;;;;;;;8.32;1.25;;;;;;;11.14;80.31;102455.38;5034037;28;99210;-31
2022/10/07 06:01:45;;;;;;;4.00;1.35;;;;;;;11.12;79.99;102452.69;5034549;28;96551;-30
2022/10/07 06:04:11;;;;;;;4.05;1.38;;;;;;;11.13;79.97;102459.91;5035120;28;96774;-31
2022/10/07 06:06:37;;;;;;;2.38;1.02;;;;;;;11.12;80.39;102459.97;5032576;28;100902;-30
2022/10/07 06:14:45;;;;;;;5.70;1.30;;;;;;;11.10;80.21;102451.88;4999482;28;96745;-30
2022/10/07 06:17:10;;;;;;;2.05;1.08;;;;;;;11.09;80.59;102447.41;5034169;27;97889;-30
2022/10/07 06:19:36;;;;;;;2.03;1.05;;;;;;;11.10;80.21;102446.44;5033625;27;104839;-30
2022/10/07 06:22:01;;;;;;;5.45;1.05;;;;;;;11.11;80.22;102450.94;5032632;28;96741;-30
2022/10/07 06:24:27;;;;;;;4.70;0.82;;;;;;;11.11;80.43;102450.94;5034425;28;96855;-31
2022/10/07 06:26:54;;;;;;;3.22;1.15;;;;;;;11.12;80.28;102451.81;5033701;28;98996;-32
2022/10/07 06:29:20;;;;;;;4.78;0.88;;;;;;;11.15;80.39;102458.00;5034041;28;99484;-31
2022/10/07 06:31:45;;;;;;;4.90;0.85;;;;;;;11.15;80.44;102462.56;5034144;28;96586;-30
2022/10/07 06:34:10;;;;;;;3.42;0.90;;;;;;;11.15;80.22;102457.13;5033970;28;96926;-31
2022/10/07 06:36:35;;;;;;;2.97;1.13;;;;;;;11.16;80.37;102457.06;5033325;27;97485;-32
2022/10/07 06:39:01;;;;;;;2.22;0.85;;;;;;;11.15;79.91;102455.28;5032809;28;104807;-31
2022/10/07 06:41:26;;;;;;;6.38;1.40;;;;;;;11.21;80.24;102454.19;5034209;28;96574;-31
2022/10/07 06:43:56;;;;;;;2.88;1.00;;;;;;;11.20;80.58;102455.13;5034116;28;96804;-31
2022/10/07 06:46:22;;;;;;;6.72;1.35;;;;;;;11.20;80.48;102456.03;5033616;27;99149;-30
2022/10/07 06:48:47;;;;;;;7.55;1.00;;;;;;;11.25;80.04;102454.03;5035422;28;100801;-31
2022/10/07 06:51:15;;;;;;;3.70;1.13;;;;;;;11.31;80.07;102457.44;5037208;28;96855;-30
2022/10/07 06:53:41;;;;;;;1.60;0.93;;;;;;;11.33;80.15;102448.28;5036076;28;97083;-30
2022/10/07 06:56:07;;;;;;;5.70;1.25;;;;;;;11.31;79.91;102444.75;5035467;28;101371;-31
2022/10/07 06:58:33;;;;;;;2.78;0.60;;;;;;;11.32;79.94;102443.81;5036673;27;98713;-30
2022/10/07 07:00:58;;;;;;;4.47;1.30;;;;;;;11.30;79.94;102440.28;5035260;28;96543;-31
2022/10/07 07:03:24;;;;;;;2.08;0.68;;;;;;;11.37;80.09;102452.66;5037242;27;96827;-32
2022/10/07 07:05:50;;;;;;;2.83;1.20;;;;;;;11.42;79.80;102445.22;5036750;28;98131;-30
2022/10/07 07:08:17;;;;;;;3.65;1.30;;;;;;;11.47;79.92;102445.03;5035203;28;100700;-31
2022/10/07 07:10:44;;;;;;;5.68;1.20;;;;;;;11.53;80.17;102436.63;5035501;28;96643;-30
2022/10/07 07:13:11;;;;;;;2.85;0.75;;;;;;;11.57;79.53;102431.97;5035671;28;97001;-30
2022/10/07 07:15:37;;;;;;;4.75;1.60;;;;;;;11.60;79.63;102451.72;5035020;28;100746;-31
2022/10/07 07:18:06;;;;;;;6.88;1.85;;;;;;;11.63;79.30;102459.75;5035264;27;100940;-31
2022/10/07 07:20:36;;;;;;;2.40;0.95;;;;;;;11.68;79.23;102471.31;5035456;28;96585;-30
2022/10/07 07:23:03;;;;;;;4.57;1.48;;;;;;;11.71;79.20;102456.75;5035354;28;96864;-30
2022/10/07 07:25:30;;;;;;;7.70;0.63;;;;;;;11.74;79.15;102464.75;5034653;28;101028;-30
2022/10/07 07:27:59;;;;;;;4.15;0.77;;;;;;;11.79;79.08;102456.41;5035109;28;98992;-30
2022/10/07 07:30:25;;;;;;;8.13;1.60;;;;;;;11.80;79.50;102461.81;5035167;28;96649;-31
2022/10/07 07:32:50;;;;;;;3.40;0.85;;;;;;;11.83;79.11;102453.53;5036426;28;96863;-30
2022/10/07 07:35:15;;;;;;;4.93;0.98;;;;;;;11.87;78.50;102457.91;5035950;28;110791;-30
2022/10/07 07:37:41;;;;;;;2.15;0.77;;;;;;;11.87;79.06;102447.06;5035733;27;97762;-30
2022/10/07 07:40:07;;;;;;;6.10;0.88;;;;;;;11.86;79.02;102444.34;5034865;28;96877;-31
2022/10/07 07:42:33;;;;;;;6.60;1.20;;;;;;;11.90;78.97;102449.63;5035337;28;96884;-30
2022/10/07 07:44:58;;;;;;;2.05;0.98;;;;;;;11.89;78.87;102436.09;5036010;28;99296;-31
2022/10/07 07:47:25;;;;;;;3.88;1.05;;;;;;;11.92;79.19;102443.25;5034465;28;101192;-30
2022/10/07 07:49:51;;;;;;;4.75;0.95;;;;;;;11.94;78.87;102442.25;5034541;28;96788;-31
2022/10/07 07:52:16;;;;;;;5.65;1.10;;;;;;;11.98;79.50;102443.00;5036149;28;96834;-30
2022/10/07 07:54:42;;;;;;;1.60;0.63;;;;;;;12.07;79.00;102446.22;5036186;28;97487;-32
2022/10/07 07:57:09;;;;;;;3.25;1.00;;;;;;;12.18;78.93;102447.56;5034641;28;101043;-31
2022/10/07 07:59:36;;;;;;;2.75;0.82;;;;;;;12.28;78.62;102451.69;5034365;27;96624;-31
2022/10/07 08:02:02;;;;;;;3.83;1.10;;;;;;;12.31;78.81;102452.44;5034639;28;96948;-30
2022/10/07 08:04:28;;;;;;;4.38;1.08;;;;;;;12.32;78.74;102450.59;5034349;28;100762;-32
2022/10/07 08:06:54;;;;;;;1.33;0.88;;;;;;;12.33;78.62;102439.66;5036138;27;99145;-31
2022/10/07 08:09:19;;;;;;;2.65;0.77;;;;;;;12.40;78.57;102448.44;5036338;28;96516;-31
2022/10/07 08:11:45;;;;;;;7.50;1.27;;;;;;;12.48;78.91;102446.25;5036057;28;96830;-30
2022/10/07 08:14:12;;;;;;;4.32;0.88;;;;;;;12.60;78.79;102441.25;5034967;28;102697;-30
2022/10/07 08:16:37;;;;;;;1.20;0.75;;;;;;;12.69;78.32;102444.44;5033978;28;100925;-32
2022/10/07 08:19:03;;;;;;;11.52;1.00;;;;;;;12.84;77.95;102439.25;5035995;28;96783;-30
2022/10/07 08:21:31;;;;;;;5.10;1.08;;;;;;;12.90;77.89;102433.53;5034969;28;96806;-30
2022/10/07 08:23:58;;;;;;;3.50;0.68;;;;;;;12.98;77.60;102434.06;5035145;27;98937;-30
2022/10/07 08:26:26;;;;;;;2.38;0.98;;;;;;;13.04;77.53;102432.88;5034053;28;100898;-30
2022/10/07 08:28:51;;;;;;;5.20;1.08;;;;;;;13.10;77.44;102430.75;5034282;28;96436;-30
2022/10/07 08:31:18;;;;;;;2.92;0.88;;;;;;;13.12;77.37;102428.84;5034993;27;112138;-30
2022/10/07 08:33:46;;;;;;;4.68;1.13;;;;;;;13.10;77.06;102427.16;5035323;28;98171;-30
2022/10/07 08:36:15;;;;;;;5.32;0.82;;;;;;;13.12;77.38;102427.97;5034031;28;100910;-30
2022/10/07 08:38:41;;;;;;;7.95;1.20;;;;;;;13.09;77.29;102423.56;5033166;27;96803;-30
2022/10/07 08:41:24;;;;;;;7.68;1.13;;;;;;;13.12;77.17;102417.97;5034129;28;96921;-31
2022/10/07 08:43:50;;;;;;;3.45;0.95;;;;;;;13.12;77.49;102417.97;5033961;28;100581;-29
2022/10/07 08:46:28;;;;;;;8.60;1.10;;;;;;;13.22;77.18;102422.97;5035255;27;97745;-30
2022/10/07 08:49:02;;;;;;;2.25;1.15;;;;;;;13.29;76.86;102425.38;5035613;27;96697;-31
2022/10/07 08:51:37;;;;;;;4.07;1.40;;;;;;;13.40;76.75;102415.81;5034102;28;96817;-31
2022/10/07 08:54:03;;;;;;;6.03;1.38;;;;;;;13.45;76.42;102420.09;5033524;28;101088;-30
2022/10/07 08:56:31;;;;;;;5.03;1.83;;;;;;;13.50;76.29;102401.69;5035333;27;98931;-30
2022/10/07 08:59:25;;;;;;;7.68;1.40;;;;;;;13.60;76.28;102407.56;5034057;28;96851;-31
2022/10/07 09:02:16;;;;;;;4.60;0.55;;;;;;;13.69;76.32;102400.78;5034820;28;96746;-30
2022/10/07 09:04:57;;;;;;;1.95;0.95;;;;;;;13.74;76.06;102390.53;5033177;28;100830;-32
2022/10/07 09:07:34;;;;;;;1.23;0.50;;;;;;;13.77;75.59;102393.09;5033687;28;100794;-30
2022/10/07 09:10:22;;;;;;;1.40;0.85;;;;;;;13.76;75.74;102392.22;5032912;27;96647;-31
2022/10/07 09:12:59;;;;;;;6.35;1.20;;;;;;;13.79;75.75;102389.31;5034902;28;96768;-30
2022/10/07 09:15:33;;;;;;;4.78;1.10;;;;;;;13.91;75.98;102400.56;5033138;28;101061;-31
2022/10/07 09:18:05;;;;;;;2.55;0.80;;;;;;;13.99;76.01;102396.50;5033508;28;100868;-30
2022/10/07 09:20:38;;;;;;;7.95;1.10;;;;;;;13.99;75.40;102390.16;5033673;28;96698;-31
2022/10/07 09:23:05;;;;;;;5.07;1.40;;;;;;;14.08;75.51;102394.25;5034076;28;96739;-30
2022/10/07 09:25:33;;;;;;;15.40;1.70;;;;;;;14.21;75.00;102388.09;5033151;28;102005;-30
2022/10/07 09:27:59;;;;;;;9.05;1.08;;;;;;;14.30;74.54;102389.47;5033161;28;98975;-31
2022/10/07 09:30:27;;;;;;;11.50;1.35;;;;;;;14.38;74.95;102395.38;5032939;28;96630;-30
2022/10/07 09:32:54;;;;;;;5.95;0.95;;;;;;;14.53;74.31;102384.63;5033416;28;96826;-31
2022/10/07 09:35:23;;;;;;;6.20;1.17;;;;;;;14.66;74.09;102393.97;5033074;28;100930;-30
2022/10/07 09:38:00;;;;;;;6.43;1.40;;;;;;;14.85;73.25;102389.25;5032620;28;100729;-30
2022/10/07 09:41:13;;;;;;;7.05;1.70;;;;;;;15.03;73.16;102384.63;5033519;28;96628;-30
2022/10/07 09:43:22;;;;;;;5.35;1.00;;;;;;;15.17;73.12;102381.13;5034135;28;98650;-30
2022/10/07 09:45:48;;;;;;;5.30;1.13;;;;;;;15.32;72.42;102370.28;5034515;27;97373;-31
2022/10/07 09:48:20;;;;;;;8.40;1.00;;;;;;;15.36;71.41;102371.91;5034570;27;97502;-31
2022/10/07 09:50:46;;;;;;;3.47;1.02;;;;;;;15.57;71.46;102369.78;5033038;28;96615;-30
2022/10/07 09:53:17;;;;;;;4.90;1.42;;;;;;;15.75;71.44;102367.84;5033243;28;96788;-29
2022/10/07 09:55:43;;;;;;;4.32;1.15;;;;;;;15.81;71.38;102368.34;5033760;28;98087;-30
2022/10/07 09:58:19;;;;;;;1.58;0.75;;;;;;;15.83;70.85;102360.09;5034385;28;97700;-30
2022/10/07 10:00:48;;;;;;;2.05;0.93;;;;;;;15.84;71.33;102354.50;5034310;28;96710;-30
2022/10/07 10:03:14;;;;;;;6.28;0.95;;;;;;;15.74;70.21;102352.44;5033142;28;96779;-30
2022/10/07 10:05:51;;;;;;;10.55;1.25;;;;;;;15.67;71.05;102354.59;5032713;28;100805;-31
2022/10/07 10:08:16;;;;;;;2.67;1.25;;;;;;;15.58;71.07;102353.28;5032734;28;98843;-30
2022/10/07 10:10:52;;;;;;;1.92;1.13;;;;;;;15.55;71.27;102347.13;5034542;28;96693;-30
2022/10/07 10:13:39;;;;;;;2.83;1.02;;;;;;;15.58;71.84;102342.34;5034641;28;96877;-31
2022/10/07 10:16:33;;;;;;;3.85;0.90;;;;;;;15.50;71.92;102331.00;5032646;28;100870;-30
2022/10/07 10:19:23;;;;;;;4.45;1.17;;;;;;;15.48;72.01;102338.41;5030932;28;97384;-30
2022/10/07 10:21:56;;;;;;;6.57;1.52;;;;;;;15.43;71.37;102333.22;5027852;27;96599;-30
2022/10/07 10:27:19;;;;;;;10.02;0.90;;;;;;;15.29;71.79;102328.53;5037892;28;97020;-30
2022/10/07 10:29:47;;;;;;;6.00;1.10;;;;;;;15.25;71.75;102321.53;5035808;28;101229;-30
2022/10/07 10:32:32;;;;;;;5.75;1.20;;;;;;;15.27;71.63;102319.56;5036177;28;96587;-30
2022/10/07 10:35:07;;;;;;;4.10;0.88;;;;;;;15.25;72.36;102315.16;5036238;28;96670;-31
2022/10/07 10:37:56;;;;;;;8.25;1.58;;;;;;;15.27;70.60;102321.41;5035446;28;99201;-33
2022/10/07 10:40:35;;;;;;;5.65;1.08;;;;;;;15.22;70.76;102315.34;5037327;28;97869;-30
2022/10/07 10:43:19;;;;;;;6.03;1.23;;;;;;;15.24;71.15;102316.13;5037567;27;96573;-30
2022/10/07 10:45:44;;;;;;;5.15;1.00;;;;;;;15.23;70.99;102306.16;5036008;28;96780;-30
2022/10/07 10:48:28;;;;;;;4.60;1.33;;;;;;;15.20;71.08;102301.78;5036492;28;98912;-30
2022/10/07 10:51:04;;;;;;;8.07;0.85;;;;;;;15.21;71.56;102297.22;5019027;28;101038;-30
2022/10/07 10:53:36;;;;;;;2.38;0.85;;;;;;;15.21;71.48;102298.09;5036056;28;96736;-30
2022/10/07 10:56:19;;;;;;;3.70;0.70;;;;;;;15.22;71.71;102288.91;5037242;27;96690;-30
2022/10/07 10:59:14;;;;;;;3.63;0.98;;;;;;;15.22;71.56;102288.03;5036964;28;99424;-30
2022/10/07 11:01:41;;;;;;;7.53;1.13;;;;;;;15.25;71.90;102282.41;5030822;28;97767;-31
2022/10/07 11:04:37;;;;;;;1.42;0.75;;;;;;;15.33;71.80;102284.72;5035864;28;96629;-31
2022/10/07 11:07:16;;;;;;;8.48;0.93;;;;;;;15.39;71.35;102274.28;5005634;27;96764;-30
2022/10/07 11:09:50;;;;;;;4.95;0.85;;;;;;;15.41;71.10;102288.72;5036720;27;97497;-30
2022/10/07 11:12:29;;;;;;;2.17;0.90;;;;;;;15.42;71.17;102275.94;5035376;28;100924;-30
2022/10/07 11:15:00;;;;;;;7.60;0.77;;;;;;;15.47;70.70;102268.38;5034877;28;96601;-30
2022/10/07 11:17:31;;;;;;;4.53;0.88;;;;;;;15.46;70.85;102264.75;5035629;28;96614;-33
2022/10/07 11:20:16;;;;;;;3.38;0.85;;;;;;;15.49;70.74;102272.78;5035106;28;100612;-30
2022/10/07 11:22:59;;;;;;;5.88;0.98;;;;;;;15.51;70.88;102261.75;5036098;28;98367;-30
2022/10/07 11:25:31;;;;;;;5.07;1.20;;;;;;;15.62;71.27;102258.38;5035442;28;96673;-31
2022/10/07 11:28:07;;;;;;;3.67;0.80;;;;;;;15.63;71.00;102255.53;5035275;28;96830;-32
2022/10/07 11:30:46;;;;;;;3.00;0.93;;;;;;;15.65;70.81;102245.41;5035102;28;101371;-31
2022/10/07 11:33:36;;;;;;;5.28;0.75;;;;;;;15.66;70.22;102249.00;5034578;28;100974;-30
2022/10/07 11:36:12;;;;;;;5.28;0.80;;;;;;;15.78;70.83;102244.69;5036783;28;96602;-30
2022/10/07 11:38:38;;;;;;;1.88;0.40;;;;;;;15.77;70.33;102249.28;5034168;28;96823;-30
2022/10/07 11:41:24;;;;;;;6.57;0.90;;;;;;;15.90;70.65;102235.75;5034338;28;101175;-30
2022/10/07 11:43:57;;;;;;;2.53;0.90;;;;;;;16.02;70.04;102234.13;5034748;28;101319;-32
2022/10/07 11:46:31;;;;;;;4.45;0.75;;;;;;;16.07;70.23;102235.59;5035156;28;96671;-30
2022/10/07 11:49:02;;;;;;;3.92;0.93;;;;;;;16.17;70.23;102230.41;5034935;28;96621;-30
2022/10/07 11:51:49;;;;;;;5.18;0.95;;;;;;;16.24;69.77;102219.97;5034674;28;100826;-30
2022/10/07 11:54:19;;;;;;;8.27;1.38;;;;;;;16.23;70.28;102216.38;5036097;27;99110;-30
2022/10/07 11:56:48;;;;;;;1.60;0.77;;;;;;;16.27;70.11;102206.09;5035008;28;96585;-30
2022/10/07 11:59:44;;;;;;;3.92;0.93;;;;;;;16.43;70.23;102195.94;5035326;28;96851;-34
2022/10/07 12:02:27;;;;;;;10.20;1.17;;;;;;;16.49;69.53;102205.59;5034632;28;100789;-30
2022/10/07 12:04:54;;;;;;;7.78;1.27;;;;;;;16.48;69.24;102191.03;5036012;28;97425;-32
2022/10/07 12:07:43;;;;;;;3.17;0.75;;;;;;;16.50;69.27;102194.56;5034129;28;96584;-30
2022/10/07 12:10:24;;;;;;;6.97;1.15;;;;;;;16.48;69.04;102193.78;5034647;28;96885;-30
2022/10/07 12:12:53;;;;;;;2.42;0.90;;;;;;;16.44;69.20;102199.53;5035571;28;99745;-30
2022/10/07 12:15:26;;;;;;;5.68;0.90;;;;;;;16.50;69.37;102190.97;5034025;28;100929;-30
2022/10/07 12:18:18;;;;;;;3.58;1.15;;;;;;;16.54;69.05;102189.75;5034696;28;96714;-30
2022/10/07 12:20:49;;;;;;;7.55;0.95;;;;;;;16.52;68.98;102173.47;5035870;27;96797;-30
2022/10/07 12:25:45;;;;;;;6.82;1.30;;;;;;;16.44;68.68;102170.34;5036056;28;97819;-30
2022/10/07 12:28:18;;;;;;;3.63;1.02;;;;;;;16.42;68.91;102174.16;5035672;27;96518;-31
2022/10/07 12:31:01;;;;;;;3.55;0.90;;;;;;;16.43;68.26;102164.97;5034097;28;97504;-31
2022/10/07 12:33:35;;;;;;;5.10;0.75;;;;;;;16.49;68.40;102148.16;5033555;28;100607;-32
2022/10/07 12:36:20;;;;;;;2.70;0.90;;;;;;;16.54;68.68;102141.41;5035335;27;98897;-30
2022/10/07 12:39:11;;;;;;;2.97;1.00;;;;;;;16.60;69.00;102140.13;5034879;28;96845;-30
2022/10/07 12:41:38;;;;;;;1.98;0.60;;;;;;;16.70;68.63;102133.03;5034167;28;96815;-30
2022/10/07 12:44:42;;;;;;;5.30;0.82;;;;;;;16.73;68.13;102130.13;5034523;27;99389;-30
2022/10/07 12:47:25;;;;;;;5.80;1.17;;;;;;;16.70;67.99;102133.03;4973097;28;97764;-30
2022/10/07 12:49:57;;;;;;;3.33;0.93;;;;;;;16.63;68.44;102119.88;5031113;27;96834;-30
2022/10/07 12:52:50;;;;;;;;;;;;;;;16.67;68.43;102121.44;5036189;27;96687;-30
2022/10/07 12:55:21;;;;;;;4.85;0.65;;;;;;;16.68;68.41;102118.59;5032575;28;99570;-29
2022/10/07 12:57:51;;;;;;;3.40;0.65;;;;;;;16.67;68.37;102110.50;5035238;27;97358;-30
2022/10/07 13:00:23;;;;;;;6.88;1.45;;;;;;;16.69;68.50;102108.53;5033500;28;96595;-30
2022/10/07 13:03:15;;;;;;;3.28;0.95;;;;;;;16.66;68.29;102097.78;5033850;28;96879;-30
2022/10/07 13:05:57;;;;;;;14.00;1.15;;;;;;;16.67;68.66;102088.63;5010348;27;99377;-32
2022/10/07 13:08:44;;;;;;;3.00;0.95;;;;;;;16.73;69.05;102089.09;5034894;27;97312;-34
2022/10/07 13:11:38;;;;;;;5.93;1.20;;;;;;;16.81;67.80;102079.50;5034992;27;96676;-30
2022/10/07 13:14:24;;;;;;;5.88;1.67;;;;;;;16.92;68.31;102076.88;5033758;28;96742;-30
2022/10/07 13:16:55;;;;;;;5.20;1.25;;;;;;;17.03;66.71;102073.44;5033400;28;100972;-30
2022/10/07 13:19:37;;;;;;;3.92;1.17;;;;;;;17.04;66.37;102072.44;5035073;27;97785;-30
2022/10/07 13:22:16;;;;;;;;;;;;;;;17.08;66.41;102072.13;5035635;27;96481;-32
2022/10/07 13:24:48;;;;;;;4.18;0.82;;;;;;;17.19;66.73;102063.16;5033754;28;96870;-30
2022/10/07 13:27:18;;;;;;;5.72;1.08;;;;;;;17.18;66.84;102059.56;5032753;28;100923;-30
2022/10/07 13:29:45;;;;;;;6.15;1.40;;;;;;;17.23;67.06;102056.47;5034701;28;98897;-30
2022/10/07 13:32:10;;;;;;;4.57;1.05;;;;;;;17.33;66.92;102065.81;5033424;28;96614;-31
2022/10/07 13:34:36;;;;;;;6.17;1.10;;;;;;;17.26;65.77;102053.53;5034938;28;96756;-30
2022/10/07 13:37:02;;;;;;;2.60;1.00;;;;;;;17.18;67.26;102048.59;5032985;28;101094;-30
2022/10/07 13:39:29;;;;;;;4.63;0.55;;;;;;;17.15;66.90;102047.94;5033610;27;97757;-31
2022/10/07 13:41:58;;;;;;;7.10;1.08;;;;;;;17.08;66.25;102046.59;5033293;28;96667;-31
2022/10/07 13:44:27;;;;;;;3.97;1.13;;;;;;;17.00;66.31;102043.53;5033814;28;96923;-30
2022/10/07 13:46:54;;;;;;;2.83;1.13;;;;;;;16.94;65.58;102036.59;5033126;28;100767;-30
2022/10/07 13:49:39;;;;;;;2.58;0.95;;;;;;;16.89;66.71;102036.94;5034545;28;97872;-32
2022/10/07 13:52:12;;;;;;;3.72;1.05;;;;;;;16.85;65.70;102026.28;5034064;27;96577;-30
2022/10/07 13:54:37;;;;;;;6.78;0.82;;;;;;;16.85;65.54;102021.72;5033273;28;96827;-32
2022/10/07 13:57:03;;;;;;;5.82;1.33;;;;;;;16.84;66.83;102022.69;5036383;27;110854;-30
2022/10/07 13:59:35;;;;;;;2.05;0.65;;;;;;;16.85;66.80;102021.72;5035876;28;98792;-31
2022/10/07 14:02:01;;;;;;;3.42;0.85;;;;;;;16.87;66.06;102018.84;5036744;27;96782;-30
2022/10/07 14:04:30;;;;;;;6.72;0.88;;;;;;;16.85;65.81;102021.72;5036538;28;96835;-32
2022/10/07 14:07:07;;;;;;;2.70;0.93;;;;;;;16.85;66.38;102018.09;5037610;28;98319;-31
2022/10/07 14:09:47;;;;;;;2.42;0.90;;;;;;;16.82;66.36;102008.22;5038014;28;99132;-30
2022/10/07 14:12:24;;;;;;;2.33;1.02;;;;;;;16.81;66.63;102003.75;5036629;28;96670;-31
2022/10/07 14:14:54;;;;;;;4.18;0.88;;;;;;;16.77;65.98;102007.63;5035218;28;97214;-30
2022/10/07 14:17:37;;;;;;;5.57;1.05;;;;;;;16.78;65.66;101995.72;5035751;28;99064;-31
2022/10/07 14:20:14;;;;;;;3.17;0.60;;;;;;;16.81;66.10;101991.94;5037761;27;97282;-30
2022/10/07 14:22:41;;;;;;;8.35;1.30;;;;;;;16.76;66.12;101989.50;5037819;28;96660;-31
2022/10/07 14:25:27;;;;;;;4.68;1.13;;;;;;;16.70;65.15;101989.91;5037933;27;96749;-30
2022/10/07 14:27:56;;;;;;;5.22;1.10;;;;;;;16.69;65.45;101979.94;5037681;27;97915;-30
2022/10/07 14:36:15;;;;;;;5.90;0.70;;;;;;;16.70;66.54;101971.63;5035938;27;96675;-31
2022/10/07 14:38:41;;;;;;;2.28;0.80;;;;;;;16.77;66.30;101972.06;5036457;27;99537;-30
2022/10/07 14:41:09;;;;;;;2.00;0.63;;;;;;;16.74;65.84;101972.28;5035866;28;101414;-30
2022/10/07 14:43:35;;;;;;;4.28;1.10;;;;;;;16.72;64.95;101966.91;5035620;28;96590;-30
2022/10/07 14:46:17;;;;;;;4.18;0.98;;;;;;;16.70;65.53;101963.41;5036085;28;96909;-30
2022/10/07 14:48:42;;;;;;;2.45;0.80;;;;;;;16.74;65.92;101977.75;5037060;27;99526;-31
2022/10/07 14:51:09;;;;;;;8.40;1.15;;;;;;;16.71;66.35;101967.91;5037104;28;97362;-31
2022/10/07 14:53:36;;;;;;;2.10;0.55;;;;;;;16.69;65.61;101969.88;5035964;28;96611;-30
2022/10/07 14:56:02;;;;;;;4.93;1.33;;;;;;;16.70;64.86;101973.47;5037203;27;96825;-30
2022/10/07 14:58:28;;;;;;;5.53;0.88;;;;;;;16.68;66.14;101959.91;5035290;28;99028;-30
2022/10/07 15:00:53;;;;;;;4.85;1.27;;;;;;;16.71;66.37;101964.31;5037321;28;97970;-30
2022/10/07 15:03:18;;;;;;;4.78;1.00;;;;;;;16.65;66.00;101954.66;5037407;27;96583;-31
2022/10/07 15:05:44;;;;;;;4.53;0.85;;;;;;;16.65;66.14;101949.19;5037417;27;96735;-30
2022/10/07 15:08:10;;;;;;;3.30;0.88;;;;;;;16.70;66.14;101947.00;5035414;27;98052;-31
2022/10/07 15:10:42;;;;;;;1.35;0.57;;;;;;;16.72;66.24;101941.41;5035444;28;101022;-31
2022/10/07 19:44:32;;;;;;;1.42;0.80;;;;;;;14.45;71.13;101816.13;4985313;28;99287;-32
2022/10/07 19:47:17;;;;;;;1.85;0.60;;;;;;;14.45;70.91;101813.38;5015264;28;97361;-30
2022/10/07 19:49:42;;;;;;;1.30;0.70;;;;;;;14.39;71.09;101808.31;5016578;28;96433;-30
2022/10/07 19:52:07;;;;;;;3.58;0.98;;;;;;;14.35;71.11;101812.22;5014633;28;97383;-31
2022/10/07 19:54:34;;;;;;;1.40;0.50;;;;;;;14.34;71.28;101801.41;5014568;28;99165;-30
2022/10/07 19:57:00;;;;;;;2.83;0.70;;;;;;;14.27;71.39;101800.91;5014576;28;100677;-31
2022/10/07 19:59:25;;;;;;;1.85;0.65;;;;;;;14.26;71.31;101804.59;5016230;28;96625;-31
2022/10/07 20:01:50;;;;;;;2.15;0.65;;;;;;;14.27;71.44;101797.31;5016403;28;96770;-32
2022/10/07 20:04:19;;;;;;;2.40;0.60;;;;;;;14.23;71.35;101796.63;5014619;28;97862;-30
2022/10/07 20:06:45;;;;;;;5.38;0.88;;;;;;;14.23;71.53;101799.34;5014360;28;101063;-30
2022/10/07 20:09:14;;;;;;;1.08;0.45;;;;;;;14.22;71.33;101798.44;5016065;28;96591;-30
2022/10/07 20:11:39;;;;;;;1.13;0.60;;;;;;;14.20;71.45;101791.34;5014962;28;96893;-31
2022/10/07 20:14:05;;;;;;;2.38;0.80;;;;;;;14.18;71.37;101794.19;5015017;28;103950;-30
2022/10/07 20:16:31;;;;;;;5.25;0.75;;;;;;;14.15;71.27;101793.47;5015806;28;97282;-31
2022/10/07 20:19:04;;;;;;;3.58;0.70;;;;;;;14.15;71.37;101794.34;5013985;28;96631;-30
2022/10/07 20:21:30;;;;;;;1.92;0.40;;;;;;;14.14;71.67;101781.72;5014238;28;96878;-31
2022/10/07 20:23:57;;;;;;;2.13;0.57;;;;;;;14.14;71.56;101783.56;5013996;28;101329;-30
2022/10/07 20:26:31;;;;;;;4.47;0.75;;;;;;;14.13;71.68;101790.84;5014079;28;100958;-31
2022/10/07 20:28:58;;;;;;;4.15;0.55;;;;;;;14.08;71.75;101784.81;5015679;28;96464;-31
2022/10/07 20:31:29;;;;;;;1.73;0.45;;;;;;;14.03;72.08;101776.91;5014266;28;96844;-31
2022/10/07 20:33:57;;;;;;;3.33;0.70;;;;;;;14.04;72.04;101777.81;5015352;28;97373;-30
2022/10/07 20:36:31;;;;;;;1.85;0.80;;;;;;;13.98;72.05;101776.31;5014119;28;101097;-31
2022/10/07 20:44:27;;;;;;;5.82;1.00;;;;;;;13.93;72.18;101756.66;5014842;28;96969;-30
2022/10/07 20:46:53;;;;;;;0.95;0.60;;;;;;;13.94;72.13;101758.44;5014915;28;97768;-30
2022/10/07 20:49:21;;;;;;;2.13;0.43;;;;;;;13.93;72.15;101763.97;5015561;28;97216;-31
2022/10/07 20:51:48;;;;;;;6.93;0.60;;;;;;;13.90;72.16;101772.34;5014034;28;96842;-31
2022/10/07 20:54:14;;;;;;;1.17;0.47;;;;;;;13.86;72.10;101758.00;5013801;28;100762;-30
2022/10/07 20:56:40;;;;;;;7.55;0.80;;;;;;;13.85;72.23;101764.44;5013585;28;100760;-30
2022/10/07 20:59:07;;;;;;;1.30;0.38;;;;;;;13.84;72.25;101756.34;5014493;28;107654;-30
2022/10/07 21:01:32;;;;;;;9.32;0.70;;;;;;;13.81;72.30;101762.84;5030989;28;96831;-31
2022/10/07 21:03:57;;;;;;;0.57;0.30;;;;;;;13.80;72.03;101764.72;5013595;28;99234;-31
2022/10/07 21:06:23;;;;;;;2.05;0.40;;;;;;;13.80;72.25;101762.00;5013928;28;97803;-31
2022/10/07 21:08:52;;;;;;;1.30;0.70;;;;;;;13.75;72.58;101753.22;5014584;28;96670;-31
2022/10/07 21:11:18;;;;;;;2.10;0.68;;;;;;;13.78;72.35;101757.59;5013779;28;96913;-30
2022/10/07 21:13:43;;;;;;;1.50;0.50;;;;;;;13.77;72.49;101743.09;5013940;28;115370;-30
2022/10/07 21:16:08;;;;;;;2.80;0.60;;;;;;;13.80;72.30;101755.69;5013270;28;99228;-31
2022/10/07 21:18:34;;;;;;;2.42;0.52;;;;;;;13.80;72.48;101753.81;5014823;28;97734;-31
2022/10/07 21:20:59;;;;;;;0.73;0.38;;;;;;;13.79;72.79;101743.00;5015206;28;96767;-31
2022/10/07 21:23:27;;;;;;;1.65;0.57;;;;;;;13.82;72.66;101745.53;5014332;28;114445;-30
2022/10/07 21:25:52;;;;;;;1.35;0.55;;;;;;;13.78;72.81;101735.81;5013424;28;100843;-29
2022/10/07 21:28:17;;;;;;;2.92;0.43;;;;;;;13.79;72.89;101727.53;5014800;28;96656;-30
2022/10/07 21:30:53;;;;;;;1.95;0.50;;;;;;;13.82;72.89;101734.66;5015065;28;96801;-31
2022/10/07 21:33:18;;;;;;;1.90;0.63;;;;;;;13.85;72.83;101736.31;5012539;28;100808;-31
2022/10/07 21:35:44;;;;;;;5.18;0.73;;;;;;;13.85;72.85;101737.19;5014585;28;97769;-30
2022/10/07 21:38:09;;;;;;;1.30;0.50;;;;;;;13.86;72.92;101729.91;5014141;28;108915;-32
2022/10/07 21:40:34;;;;;;;4.75;0.85;;;;;;;13.89;73.23;101718.81;5014679;28;96789;-31
2022/10/07 21:43:00;;;;;;;2.60;0.68;;;;;;;13.90;73.21;101728.75;5014303;28;96717;-31
2022/10/07 21:45:27;;;;;;;0.95;0.38;;;;;;;13.90;72.94;101721.44;5013611;28;98733;-30
2022/10/07 21:47:52;;;;;;;3.78;0.75;;;;;;;13.91;73.17;101725.91;5014780;28;96452;-30
2022/10/07 21:50:17;;;;;;;1.35;0.50;;;;;;;13.92;73.29;101727.69;5015298;28;96785;-32
2022/10/07 21:52:43;;;;;;;1.73;0.60;;;;;;;13.93;73.30;101718.53;5014419;28;97413;-31
2022/10/07 21:55:08;;;;;;;4.50;1.10;;;;;;;13.93;73.49;101723.09;5014291;28;97759;-31
2022/10/07 21:57:33;;;;;;;1.17;0.40;;;;;;;13.96;73.96;101720.19;5013516;28;99034;-30
2022/10/07 21:59:58;;;;;;;1.90;0.47;;;;;;;13.92;74.17;101715.88;5014595;28;96743;-30
2022/10/07 22:02:27;;;;;;;2.70;0.50;;;;;;;13.94;73.71;101727.56;5013703;28;114909;-30
2022/10/07 22:04:53;;;;;;;2.47;0.80;;;;;;;13.94;73.98;101725.75;5012787;28;101177;-31
2022/10/07 22:10:02;;;;;;;1.50;0.57;;;;;;;13.93;74.19;101723.09;5014544;28;96580;-31
2022/10/07 22:12:28;;;;;;;1.25;0.63;;;;;;;13.91;74.30;101711.44;5014254;28;97854;-33
2022/10/07 22:14:53;;;;;;;7.80;0.88;;;;;;;13.92;74.20;101708.63;5013918;28;109219;-30
2022/10/07 22:17:18;;;;;;;1.23;0.40;;;;;;;13.93;74.43;101706.75;5015048;28;99846;-30
2022/10/07 22:19:43;;;;;;;4.85;0.75;;;;;;;13.94;74.25;101714.84;5017283;28;104663;-30
2022/10/07 22:22:11;;;;;;;3.70;0.73;;;;;;;13.93;74.62;101701.31;5016943;28;103270;-30